sensor_id;sensor_type;location;lat;lon;timestamp;pressure;altitude;pressure_sealevel;temperature;humidity
69153;BME280;56261;51.580;4.578;2023-08-12T00:00:04;101862.09;;;20.93;100.00
69153;BME280;56261;51.580;4.578;2023-08-12T00:02:40;101856.06;;;20.91;100.00
69153;BME280;56261;51.580;4.578;2023-08-12T00:05:07;101856.69;;;20.87;100.00
69153;BME280;56261;51.580;4.578;2023-08-12T00:07:33;101858.38;;;20.88;100.00
69153;BME280;56261;51.580;4.578;2023-08-12T00:10:03;101857.31;;;20.89;100.00
69153;BME280;56261;51.580;4.578;2023-08-12T00:12:33;101847.72;;;20.93;100.00
69153;BME280;56261;51.580;4.578;2023-08-12T00:14:59;101845.00;;;20.93;100.00
69153;BME280;56261;51.580;4.578;2023-08-12T00:17:24;101849.13;;;21.02;100.00
69153;BME280;56261;51.580;4.578;2023-08-12T00:19:49;101836.88;;;20.93;100.00
69153;BME280;56261;51.580;4.578;2023-08-12T00:22:15;101840.81;;;20.97;100.00
69153;BME280;56261;51.580;4.578;2023-08-12T00:24:41;101844.97;;;21.00;100.00
69153;BME280;56261;51.580;4.578;2023-08-12T00:27:06;101838.72;;;20.99;100.00
69153;BME280;56261;51.580;4.578;2023-08-12T00:29:34;101837.50;;;20.95;100.00
69153;BME280;56261;51.580;4.578;2023-08-12T00:31:59;101831.63;;;20.98;100.00
69153;BME280;56261;51.580;4.578;2023-08-12T00:34:25;101838.50;;;21.01;100.00
69153;BME280;56261;51.580;4.578;2023-08-12T00:36:50;101828.53;;;20.94;100.00
69153;BME280;56261;51.580;4.578;2023-08-12T00:39:15;101828.72;;;20.93;100.00
69153;BME280;56261;51.580;4.578;2023-08-12T00:41:41;101828.94;;;20.91;100.00
69153;BME280;56261;51.580;4.578;2023-08-12T00:44:06;101828.94;;;20.91;100.00
69153;BME280;56261;51.580;4.578;2023-08-12T00:46:33;101813.09;;;20.88;100.00
69153;BME280;56261;51.580;4.578;2023-08-12T00:48:59;101814.56;;;20.84;100.00
69153;BME280;56261;51.580;4.578;2023-08-12T00:51:25;101809.34;;;20.83;100.00
69153;BME280;56261;51.580;4.578;2023-08-12T00:53:50;101808.69;;;20.94;100.00
69153;BME280;56261;51.580;4.578;2023-08-12T00:56:16;101814.53;;;20.98;100.00
69153;BME280;56261;51.580;4.578;2023-08-12T00:58:43;101798.44;;;20.96;100.00
69153;BME280;56261;51.580;4.578;2023-08-12T01:01:09;101800.38;;;20.89;100.00
69153;BME280;56261;51.580;4.578;2023-08-12T01:03:35;101794.13;;;20.88;100.00
69153;BME280;56261;51.580;4.578;2023-08-12T01:06:02;101798.91;;;20.86;100.00
69153;BME280;56261;51.580;4.578;2023-08-12T01:08:30;101792.88;;;20.84;100.00
69153;BME280;56261;51.580;4.578;2023-08-12T01:11:10;101789.13;;;20.85;100.00
69153;BME280;56261;51.580;4.578;2023-08-12T01:13:52;101783.28;;;20.82;100.00
69153;BME280;56261;51.580;4.578;2023-08-12T01:16:22;101787.47;;;20.84;100.00
69153;BME280;56261;51.580;4.578;2023-08-12T01:18:50;101775.19;;;20.75;100.00
69153;BME280;56261;51.580;4.578;2023-08-12T01:21:16;101788.31;;;20.78;100.00
69153;BME280;56261;51.580;4.578;2023-08-12T01:23:43;101770.56;;;20.82;100.00
69153;BME280;56261;51.580;4.578;2023-08-12T01:26:08;101773.47;;;20.81;100.00
69153;BME280;56261;51.580;4.578;2023-08-12T01:28:33;101774.97;;;20.83;100.00
69153;BME280;56261;51.580;4.578;2023-08-12T01:31:37;101772.03;;;20.78;100.00
69153;BME280;56261;51.580;4.578;2023-08-12T01:34:25;101776.63;;;20.78;100.00
69153;BME280;56261;51.580;4.578;2023-08-12T01:36:55;101768.50;;;20.78;100.00
69153;BME280;56261;51.580;4.578;2023-08-12T01:39:23;101769.72;;;20.88;100.00
69153;BME280;56261;51.580;4.578;2023-08-12T01:41:50;101762.41;;;20.89;100.00
69153;BME280;56261;51.580;4.578;2023-08-12T01:44:16;101760.78;;;20.81;100.00
69153;BME280;56261;51.580;4.578;2023-08-12T01:46:43;101765.59;;;20.79;100.00
69153;BME280;56261;51.580;4.578;2023-08-12T01:49:09;101753.50;;;20.75;100.00
69153;BME280;56261;51.580;4.578;2023-08-12T01:51:34;101754.13;;;20.77;100.00
69153;BME280;56261;51.580;4.578;2023-08-12T01:54:00;101762.09;;;20.65;100.00
69153;BME280;56261;51.580;4.578;2023-08-12T01:56:25;101754.97;;;20.71;100.00
69153;BME280;56261;51.580;4.578;2023-08-12T01:58:50;101757.03;;;20.76;100.00
69153;BME280;56261;51.580;4.578;2023-08-12T02:01:16;101754.94;;;20.78;100.00
69153;BME280;56261;51.580;4.578;2023-08-12T02:03:41;101747.03;;;20.69;100.00
69153;BME280;56261;51.580;4.578;2023-08-12T02:06:07;101753.72;;;20.67;100.00
69153;BME280;56261;51.580;4.578;2023-08-12T02:08:32;101750.38;;;20.71;100.00
69153;BME280;56261;51.580;4.578;2023-08-12T02:10:57;101747.47;;;20.66;100.00
69153;BME280;56261;51.580;4.578;2023-08-12T02:13:23;101757.03;;;20.76;100.00
69153;BME280;56261;51.580;4.578;2023-08-12T02:15:48;101749.53;;;20.71;100.00
69153;BME280;56261;51.580;4.578;2023-08-12T02:18:13;101746.00;;;20.70;100.00
69153;BME280;56261;51.580;4.578;2023-08-12T02:20:40;101734.16;;;20.58;100.00
69153;BME280;56261;51.580;4.578;2023-08-12T02:23:06;101753.09;;;20.65;100.00
69153;BME280;56261;51.580;4.578;2023-08-12T02:25:31;101756.47;;;20.60;100.00
69153;BME280;56261;51.580;4.578;2023-08-12T02:27:56;101748.75;;;20.64;100.00
69153;BME280;56261;51.580;4.578;2023-08-12T02:30:22;101746.22;;;20.56;100.00
69153;BME280;56261;51.580;4.578;2023-08-12T02:32:47;101754.00;;;20.45;100.00
69153;BME280;56261;51.580;4.578;2023-08-12T02:35:14;101746.69;;;20.46;100.00
69153;BME280;56261;51.580;4.578;2023-08-12T02:37:40;101731.09;;;20.35;100.00
69153;BME280;56261;51.580;4.578;2023-08-12T02:40:06;101729.41;;;20.33;100.00
69153;BME280;56261;51.580;4.578;2023-08-12T02:42:31;101728.19;;;20.36;100.00
69153;BME280;56261;51.580;4.578;2023-08-12T02:44:57;101722.78;;;20.23;100.00
69153;BME280;56261;51.580;4.578;2023-08-12T02:47:22;101725.91;;;20.20;100.00
69153;BME280;56261;51.580;4.578;2023-08-12T02:49:47;101733.00;;;20.21;100.00
69153;BME280;56261;51.580;4.578;2023-08-12T02:52:13;101726.34;;;20.23;100.00
69153;BME280;56261;51.580;4.578;2023-08-12T02:54:39;101725.09;;;20.13;100.00
69153;BME280;56261;51.580;4.578;2023-08-12T02:57:04;101716.75;;;20.21;100.00
69153;BME280;56261;51.580;4.578;2023-08-12T02:59:30;101710.06;;;20.23;100.00
69153;BME280;56261;51.580;4.578;2023-08-12T03:01:55;101697.78;;;20.21;100.00
69153;BME280;56261;51.580;4.578;2023-08-12T03:04:20;101714.25;;;20.19;100.00
69153;BME280;56261;51.580;4.578;2023-08-12T03:06:47;101705.94;;;20.14;100.00
69153;BME280;56261;51.580;4.578;2023-08-12T03:09:13;101708.22;;;20.17;100.00
69153;BME280;56261;51.580;4.578;2023-08-12T03:11:38;101706.13;;;20.13;100.00
69153;BME280;56261;51.580;4.578;2023-08-12T03:14:04;101710.72;;;20.12;100.00
69153;BME280;56261;51.580;4.578;2023-08-12T03:16:29;101705.75;;;19.96;100.00
69153;BME280;56261;51.580;4.578;2023-08-12T03:18:54;101702.00;;;20.03;100.00
69153;BME280;56261;51.580;4.578;2023-08-12T03:21:20;101714.72;;;19.96;100.00
69153;BME280;56261;51.580;4.578;2023-08-12T03:23:45;101702.00;;;19.90;100.00
69153;BME280;56261;51.580;4.578;2023-08-12T03:26:11;101706.78;;;20.01;100.00
69153;BME280;56261;51.580;4.578;2023-08-12T03:28:36;101701.56;;;20.00;100.00
69153;BME280;56261;51.580;4.578;2023-08-12T03:31:02;101688.84;;;20.00;100.00
69153;BME280;56261;51.580;4.578;2023-08-12T03:33:27;101687.41;;;20.04;100.00
69153;BME280;56261;51.580;4.578;2023-08-12T03:35:53;101686.38;;;20.05;100.00
69153;BME280;56261;51.580;4.578;2023-08-12T03:38:18;101671.41;;;19.96;100.00
69153;BME280;56261;51.580;4.578;2023-08-12T03:40:43;101672.81;;;20.05;100.00
69153;BME280;56261;51.580;4.578;2023-08-12T03:43:09;101672.81;;;20.12;100.00
69153;BME280;56261;51.580;4.578;2023-08-12T03:45:41;101679.69;;;20.08;100.00
69153;BME280;56261;51.580;4.578;2023-08-12T03:48:07;101668.44;;;20.04;100.00
69153;BME280;56261;51.580;4.578;2023-08-12T03:50:39;101656.56;;;20.05;100.00
69153;BME280;56261;51.580;4.578;2023-08-12T03:53:05;101641.16;;;20.06;100.00
69153;BME280;56261;51.580;4.578;2023-08-12T03:55:31;101643.03;;;20.05;100.00
69153;BME280;56261;51.580;4.578;2023-08-12T03:57:58;101639.06;;;20.08;100.00
69153;BME280;56261;51.580;4.578;2023-08-12T04:00:23;101622.16;;;20.13;100.00
69153;BME280;56261;51.580;4.578;2023-08-12T04:02:48;101621.53;;;20.10;100.00
69153;BME280;56261;51.580;4.578;2023-08-12T04:05:14;101626.16;;;20.10;100.00
69153;BME280;56261;51.580;4.578;2023-08-12T04:07:40;101615.91;;;20.19;100.00
69153;BME280;56261;51.580;4.578;2023-08-12T04:10:06;101617.63;;;20.00;100.00
69153;BME280;56261;51.580;4.578;2023-08-12T04:12:31;101631.00;;;19.88;100.00
69153;BME280;56261;51.580;4.578;2023-08-12T04:14:57;101640.59;;;19.84;100.00
69153;BME280;56261;51.580;4.578;2023-08-12T04:17:22;101634.53;;;19.82;100.00
69153;BME280;56261;51.580;4.578;2023-08-12T04:19:48;101647.44;;;19.86;100.00
69153;BME280;56261;51.580;4.578;2023-08-12T04:22:14;101649.31;;;19.86;100.00
69153;BME280;56261;51.580;4.578;2023-08-12T04:24:39;101638.94;;;19.83;100.00
69153;BME280;56261;51.580;4.578;2023-08-12T04:27:05;101637.69;;;19.79;100.00
69153;BME280;56261;51.580;4.578;2023-08-12T04:29:30;101636.63;;;19.73;100.00
69153;BME280;56261;51.580;4.578;2023-08-12T04:31:58;101629.38;;;19.74;100.00
69153;BME280;56261;51.580;4.578;2023-08-12T04:34:24;101634.34;;;19.77;100.00
69153;BME280;56261;51.580;4.578;2023-08-12T04:36:49;101623.50;;;19.83;100.00
69153;BME280;56261;51.580;4.578;2023-08-12T04:39:14;101617.28;;;19.76;100.00
69153;BME280;56261;51.580;4.578;2023-08-12T04:41:40;101618.72;;;19.85;100.00
69153;BME280;56261;51.580;4.578;2023-08-12T04:44:06;101623.72;;;19.82;100.00
69153;BME280;56261;51.580;4.578;2023-08-12T04:46:31;101612.06;;;19.81;100.00
69153;BME280;56261;51.580;4.578;2023-08-12T04:48:57;101603.72;;;19.89;100.00
69153;BME280;56261;51.580;4.578;2023-08-12T04:51:22;101609.38;;;19.75;100.00
69153;BME280;56261;51.580;4.578;2023-08-12T04:53:48;101606.03;;;19.66;100.00
69153;BME280;56261;51.580;4.578;2023-08-12T04:56:13;101606.03;;;19.66;100.00
69153;BME280;56261;51.580;4.578;2023-08-12T04:58:39;101600.41;;;19.67;100.00
69153;BME280;56261;51.580;4.578;2023-08-12T05:01:04;101578.53;;;19.56;100.00
69153;BME280;56261;51.580;4.578;2023-08-12T05:03:29;101598.34;;;19.56;100.00
69153;BME280;56261;51.580;4.578;2023-08-12T05:05:55;101592.69;;;19.58;100.00
69153;BME280;56261;51.580;4.578;2023-08-12T05:08:20;101595.41;;;19.51;100.00
69153;BME280;56261;51.580;4.578;2023-08-12T05:10:49;101596.47;;;19.50;100.00
69153;BME280;56261;51.580;4.578;2023-08-12T05:13:15;101588.78;;;19.54;100.00
69153;BME280;56261;51.580;4.578;2023-08-12T05:15:41;101592.50;;;19.59;100.00
69153;BME280;56261;51.580;4.578;2023-08-12T05:18:06;101597.72;;;19.61;100.00
69153;BME280;56261;51.580;4.578;2023-08-12T05:20:32;101595.81;;;19.61;100.00
69153;BME280;56261;51.580;4.578;2023-08-12T05:22:57;101580.88;;;19.45;100.00
69153;BME280;56261;51.580;4.578;2023-08-12T05:25:23;101595.00;;;19.61;100.00
69153;BME280;56261;51.580;4.578;2023-08-12T05:27:49;101599.81;;;19.52;100.00
69153;BME280;56261;51.580;4.578;2023-08-12T05:30:15;101600.84;;;19.51;100.00
69153;BME280;56261;51.580;4.578;2023-08-12T05:32:40;101599.16;;;19.57;100.00
69153;BME280;56261;51.580;4.578;2023-08-12T05:35:06;101595.00;;;19.54;100.00
69153;BME280;56261;51.580;4.578;2023-08-12T05:37:31;101590.84;;;19.65;100.00
69153;BME280;56261;51.580;4.578;2023-08-12T05:39:57;101589.78;;;19.59;100.00
69153;BME280;56261;51.580;4.578;2023-08-12T05:42:22;101584.81;;;19.69;100.00
69153;BME280;56261;51.580;4.578;2023-08-12T05:44:48;101576.44;;;19.64;100.00
69153;BME280;56261;51.580;4.578;2023-08-12T05:47:13;101583.34;;;19.67;100.00
69153;BME280;56261;51.580;4.578;2023-08-12T05:49:38;101583.34;;;19.67;100.00
69153;BME280;56261;51.580;4.578;2023-08-12T05:52:04;101580.63;;;19.67;100.00
69153;BME280;56261;51.580;4.578;2023-08-12T05:54:29;101576.44;;;19.78;100.00
69153;BME280;56261;51.580;4.578;2023-08-12T05:56:55;101569.81;;;19.74;100.00
69153;BME280;56261;51.580;4.578;2023-08-12T05:59:20;101576.47;;;19.71;100.00
69153;BME280;56261;51.580;4.578;2023-08-12T06:01:45;101574.81;;;19.63;100.00
69153;BME280;56261;51.580;4.578;2023-08-12T06:04:11;101575.44;;;19.59;100.00
69153;BME280;56261;51.580;4.578;2023-08-12T06:06:36;101566.69;;;19.63;100.00
69153;BME280;56261;51.580;4.578;2023-08-12T06:09:02;101565.22;;;19.67;100.00
69153;BME280;56261;51.580;4.578;2023-08-12T06:11:27;101566.06;;;19.61;100.00
69153;BME280;56261;51.580;4.578;2023-08-12T06:13:53;101565.63;;;19.64;100.00
69153;BME280;56261;51.580;4.578;2023-08-12T06:16:18;101562.75;;;19.46;100.00
69153;BME280;56261;51.580;4.578;2023-08-12T06:18:44;101562.31;;;19.49;100.00
69153;BME280;56261;51.580;4.578;2023-08-12T06:21:09;101568.59;;;19.43;100.00
69153;BME280;56261;51.580;4.578;2023-08-12T06:23:34;101570.03;;;19.52;100.00
69153;BME280;56261;51.580;4.578;2023-08-12T06:26:00;101567.94;;;19.67;100.00
69153;BME280;56261;51.580;4.578;2023-08-12T06:28:25;101574.63;;;19.58;100.00
69153;BME280;56261;51.580;4.578;2023-08-12T06:30:51;101567.72;;;19.56;100.00
69153;BME280;56261;51.580;4.578;2023-08-12T06:33:16;101566.72;;;19.43;100.00
69153;BME280;56261;51.580;4.578;2023-08-12T06:35:42;101572.78;;;19.32;100.00
69153;BME280;56261;51.580;4.578;2023-08-12T06:38:07;101577.97;;;19.40;100.00
69153;BME280;56261;51.580;4.578;2023-08-12T06:40:35;101581.69;;;19.46;100.00
69153;BME280;56261;51.580;4.578;2023-08-12T06:43:00;101582.53;;;19.46;100.00
69153;BME280;56261;51.580;4.578;2023-08-12T06:45:26;101581.50;;;19.41;100.00
69153;BME280;56261;51.580;4.578;2023-08-12T06:47:51;101587.75;;;19.35;100.00
69153;BME280;56261;51.580;4.578;2023-08-12T06:50:16;101582.50;;;19.53;100.00
69153;BME280;56261;51.580;4.578;2023-08-12T06:52:42;101581.69;;;19.53;100.00
69153;BME280;56261;51.580;4.578;2023-08-12T06:55:07;101581.25;;;19.62;100.00
69153;BME280;56261;51.580;4.578;2023-08-12T06:57:33;101591.66;;;19.65;100.00
69153;BME280;56261;51.580;4.578;2023-08-12T06:59:58;101597.91;;;19.73;100.00
69153;BME280;56261;51.580;4.578;2023-08-12T07:02:24;101587.28;;;19.64;100.00
69153;BME280;56261;51.580;4.578;2023-08-12T07:04:49;101590.84;;;19.72;100.00
69153;BME280;56261;51.580;4.578;2023-08-12T07:07:14;101593.13;;;19.75;100.00
69153;BME280;56261;51.580;4.578;2023-08-12T07:09:40;101593.31;;;19.66;100.00
69153;BME280;56261;51.580;4.578;2023-08-12T07:12:05;101585.66;;;19.70;100.00
69153;BME280;56261;51.580;4.578;2023-08-12T07:14:31;101581.84;;;19.84;100.00
69153;BME280;56261;51.580;4.578;2023-08-12T07:16:56;101592.28;;;19.81;100.00
69153;BME280;56261;51.580;4.578;2023-08-12T07:19:22;101580.53;;;20.00;100.00
69153;BME280;56261;51.580;4.578;2023-08-12T07:21:47;101583.56;;;19.72;100.00
69153;BME280;56261;51.580;4.578;2023-08-12T07:24:13;101584.19;;;19.61;100.00
69153;BME280;56261;51.580;4.578;2023-08-12T07:26:38;101610.41;;;18.80;100.00
69153;BME280;56261;51.580;4.578;2023-08-12T07:29:04;101599.19;;;18.22;100.00
69153;BME280;56261;51.580;4.578;2023-08-12T07:31:29;101606.63;;;18.07;100.00
69153;BME280;56261;51.580;4.578;2023-08-12T07:33:54;101614.16;;;17.55;100.00
69153;BME280;56261;51.580;4.578;2023-08-12T07:36:20;101622.34;;;17.40;100.00
69153;BME280;56261;51.580;4.578;2023-08-12T07:38:45;101622.16;;;17.41;100.00
69153;BME280;56261;51.580;4.578;2023-08-12T07:41:10;101621.06;;;17.36;100.00
69153;BME280;56261;51.580;4.578;2023-08-12T07:43:36;101610.81;;;17.03;100.00
69153;BME280;56261;51.580;4.578;2023-08-12T07:46:01;101629.31;;;17.06;100.00
69153;BME280;56261;51.580;4.578;2023-08-12T07:48:26;101628.69;;;17.04;100.00
69153;BME280;56261;51.580;4.578;2023-08-12T07:50:58;101637.84;;;17.10;100.00
69153;BME280;56261;51.580;4.578;2023-08-12T07:53:24;101643.94;;;17.18;100.00
69153;BME280;56261;51.580;4.578;2023-08-12T07:55:50;101635.53;;;16.85;100.00
69153;BME280;56261;51.580;4.578;2023-08-12T07:58:16;101654.75;;;16.97;100.00
69153;BME280;56261;51.580;4.578;2023-08-12T08:00:42;101666.22;;;16.84;100.00
69153;BME280;56261;51.580;4.578;2023-08-12T08:03:07;101657.38;;;16.90;100.00
69153;BME280;56261;51.580;4.578;2023-08-12T08:05:33;101654.47;;;17.35;100.00
69153;BME280;56261;51.580;4.578;2023-08-12T08:07:58;101662.72;;;17.55;100.00
69153;BME280;56261;51.580;4.578;2023-08-12T08:10:24;101658.44;;;17.67;100.00
69153;BME280;56261;51.580;4.578;2023-08-12T08:12:49;101632.69;;;17.36;100.00
69153;BME280;56261;51.580;4.578;2023-08-12T08:15:15;101616.47;;;17.86;100.00
69153;BME280;56261;51.580;4.578;2023-08-12T08:17:40;101629.44;;;18.04;100.00
69153;BME280;56261;51.580;4.578;2023-08-12T08:20:06;101638.47;;;17.90;100.00
69153;BME280;56261;51.580;4.578;2023-08-12T08:22:32;101634.81;;;17.97;100.00
69153;BME280;56261;51.580;4.578;2023-08-12T08:24:58;101642.06;;;17.69;100.00
69153;BME280;56261;51.580;4.578;2023-08-12T08:27:23;101652.28;;;18.08;100.00
69153;BME280;56261;51.580;4.578;2023-08-12T08:29:49;101635.03;;;17.74;100.00
69153;BME280;56261;51.580;4.578;2023-08-12T08:32:14;101656.63;;;17.74;100.00
69153;BME280;56261;51.580;4.578;2023-08-12T08:34:40;101643.97;;;17.47;100.00
69153;BME280;56261;51.580;4.578;2023-08-12T08:37:05;101643.56;;;17.50;100.00
69153;BME280;56261;51.580;4.578;2023-08-12T08:39:30;101640.94;;;17.56;100.00
69153;BME280;56261;51.580;4.578;2023-08-12T08:41:58;101656.59;;;18.44;100.00
69153;BME280;56261;51.580;4.578;2023-08-12T08:44:29;101652.84;;;19.13;100.00
69153;BME280;56261;51.580;4.578;2023-08-12T08:46:55;101645.06;;;18.70;100.00
69153;BME280;56261;51.580;4.578;2023-08-12T08:49:23;101646.25;;;18.48;100.00
69153;BME280;56261;51.580;4.578;2023-08-12T08:51:49;101655.53;;;18.32;100.00
69153;BME280;56261;51.580;4.578;2023-08-12T08:54:15;101656.47;;;18.59;100.00
69153;BME280;56261;51.580;4.578;2023-08-12T08:56:40;101645.97;;;18.91;100.00
69153;BME280;56261;51.580;4.578;2023-08-12T08:59:06;101641.81;;;18.95;100.00
69153;BME280;56261;51.580;4.578;2023-08-12T09:01:35;101642.41;;;18.83;100.00
69153;BME280;56261;51.580;4.578;2023-08-12T09:04:02;101647.38;;;18.73;100.00
69153;BME280;56261;51.580;4.578;2023-08-12T09:06:29;101638.09;;;18.41;100.00
69153;BME280;56261;51.580;4.578;2023-08-12T09:08:55;101657.50;;;18.58;100.00
69153;BME280;56261;51.580;4.578;2023-08-12T09:11:21;101661.66;;;18.60;100.00
69153;BME280;56261;51.580;4.578;2023-08-12T09:13:47;101677.78;;;18.88;100.00
69153;BME280;56261;51.580;4.578;2023-08-12T09:16:15;101676.47;;;18.71;100.00
69153;BME280;56261;51.580;4.578;2023-08-12T09:18:42;101668.22;;;18.93;100.00
69153;BME280;56261;51.580;4.578;2023-08-12T09:21:09;101659.97;;;19.27;100.00
69153;BME280;56261;51.580;4.578;2023-08-12T09:23:38;101667.25;;;19.40;100.00
69153;BME280;56261;51.580;4.578;2023-08-12T09:26:14;101652.66;;;19.48;100.00
69153;BME280;56261;51.580;4.578;2023-08-12T09:28:41;101655.81;;;19.72;100.00
69153;BME280;56261;51.580;4.578;2023-08-12T09:31:07;101661.59;;;19.62;100.00
69153;BME280;56261;51.580;4.578;2023-08-12T09:33:38;101664.75;;;19.72;100.00
69153;BME280;56261;51.580;4.578;2023-08-12T09:36:04;101672.78;;;20.19;100.00
69153;BME280;56261;51.580;4.578;2023-08-12T09:38:30;101672.63;;;21.04;100.00
69153;BME280;56261;51.580;4.578;2023-08-12T09:40:56;101674.06;;;20.68;100.00
69153;BME280;56261;51.580;4.578;2023-08-12T09:43:24;101684.25;;;20.21;100.00
69153;BME280;56261;51.580;4.578;2023-08-12T09:45:56;101673.63;;;20.19;100.00
69153;BME280;56261;51.580;4.578;2023-08-12T09:48:21;101686.22;;;20.52;100.00
69153;BME280;56261;51.580;4.578;2023-08-12T09:50:47;101683.97;;;20.36;100.00
69153;BME280;56261;51.580;4.578;2023-08-12T09:53:12;101674.63;;;20.25;100.00
69153;BME280;56261;51.580;4.578;2023-08-12T09:55:38;101673.72;;;20.89;100.00
69153;BME280;56261;51.580;4.578;2023-08-12T09:58:06;101666.41;;;21.53;100.00
69153;BME280;56261;51.580;4.578;2023-08-12T10:00:33;101661.59;;;21.55;100.00
69153;BME280;56261;51.580;4.578;2023-08-12T10:03:00;101670.28;;;21.64;100.00
69153;BME280;56261;51.580;4.578;2023-08-12T10:05:28;101676.13;;;21.61;100.00
69153;BME280;56261;51.580;4.578;2023-08-12T10:07:54;101669.03;;;21.42;100.00
69153;BME280;56261;51.580;4.578;2023-08-12T10:10:23;101654.22;;;21.81;100.00
69153;BME280;56261;51.580;4.578;2023-08-12T10:12:48;101667.28;;;21.72;100.00
69153;BME280;56261;51.580;4.578;2023-08-12T10:15:14;101683.72;;;20.96;100.00
69153;BME280;56261;51.580;4.578;2023-08-12T10:17:41;101686.41;;;20.50;100.00
69153;BME280;56261;51.580;4.578;2023-08-12T10:20:08;101688.69;;;20.53;100.00
69153;BME280;56261;51.580;4.578;2023-08-12T10:22:39;101691.88;;;20.89;100.00
69153;BME280;56261;51.580;4.578;2023-08-12T10:25:07;101673.38;;;21.43;100.00
69153;BME280;56261;51.580;4.578;2023-08-12T10:27:33;101661.53;;;21.62;100.00
69153;BME280;56261;51.580;4.578;2023-08-12T10:29:59;101668.13;;;21.16;100.00
69153;BME280;56261;51.580;4.578;2023-08-12T10:32:25;101677.94;;;20.85;100.00
69153;BME280;56261;51.580;4.578;2023-08-12T10:34:55;101680.56;;;20.53;100.00
69153;BME280;56261;51.580;4.578;2023-08-12T10:37:23;101666.91;;;20.28;100.00
69153;BME280;56261;51.580;4.578;2023-08-12T10:39:49;101682.94;;;20.88;100.00
69153;BME280;56261;51.580;4.578;2023-08-12T10:42:40;101671.31;;;21.38;100.00
69153;BME280;56261;51.580;4.578;2023-08-12T10:45:07;101678.63;;;21.38;100.00
69153;BME280;56261;51.580;4.578;2023-08-12T10:47:37;101666.28;;;21.67;100.00
69153;BME280;56261;51.580;4.578;2023-08-12T10:50:03;101660.31;;;22.02;100.00
69153;BME280;56261;51.580;4.578;2023-08-12T10:52:31;101665.69;;;22.27;100.00
69153;BME280;56261;51.580;4.578;2023-08-12T10:55:17;101667.09;;;22.48;100.00
69153;BME280;56261;51.580;4.578;2023-08-12T10:57:43;101663.69;;;22.52;100.00
69153;BME280;56261;51.580;4.578;2023-08-12T11:00:35;101666.38;;;22.71;100.00
69153;BME280;56261;51.580;4.578;2023-08-12T11:03:05;101663.50;;;22.35;100.00
69153;BME280;56261;51.580;4.578;2023-08-12T11:05:40;101664.59;;;22.09;100.00
69153;BME280;56261;51.580;4.578;2023-08-12T11:08:05;101654.25;;;22.18;100.00
69153;BME280;56261;51.580;4.578;2023-08-12T11:10:32;101667.44;;;21.96;100.00
69153;BME280;56261;51.580;4.578;2023-08-12T11:12:58;101664.06;;;21.82;100.00
69153;BME280;56261;51.580;4.578;2023-08-12T11:15:32;101656.72;;;22.01;100.00
69153;BME280;56261;51.580;4.578;2023-08-12T11:17:59;101667.81;;;22.73;100.00
69153;BME280;56261;51.580;4.578;2023-08-12T11:20:27;101651.13;;;23.00;100.00
69153;BME280;56261;51.580;4.578;2023-08-12T11:22:54;101656.72;;;23.17;100.00
69153;BME280;56261;51.580;4.578;2023-08-12T11:25:19;101661.34;;;22.56;100.00
69153;BME280;56261;51.580;4.578;2023-08-12T11:27:46;101656.31;;;22.71;100.00
69153;BME280;56261;51.580;4.578;2023-08-12T11:30:16;101655.94;;;22.37;100.00
69153;BME280;56261;51.580;4.578;2023-08-12T11:32:43;101658.59;;;22.86;100.00
69153;BME280;56261;51.580;4.578;2023-08-12T11:35:09;101662.53;;;22.90;100.00
69153;BME280;56261;51.580;4.578;2023-08-12T11:37:40;101653.81;;;22.70;100.00
69153;BME280;56261;51.580;4.578;2023-08-12T11:40:07;101656.03;;;22.91;100.00
69153;BME280;56261;51.580;4.578;2023-08-12T11:42:38;101657.34;;;22.89;100.00
69153;BME280;56261;51.580;4.578;2023-08-12T11:45:04;101650.44;;;22.86;100.00
69153;BME280;56261;51.580;4.578;2023-08-12T11:47:30;101655.94;;;22.98;100.00
69153;BME280;56261;51.580;4.578;2023-08-12T11:49:55;101657.47;;;23.36;100.00
69153;BME280;56261;51.580;4.578;2023-08-12T11:52:21;101661.56;;;23.15;100.00
69153;BME280;56261;51.580;4.578;2023-08-12T11:54:49;101663.34;;;23.09;100.00
69153;BME280;56261;51.580;4.578;2023-08-12T11:57:15;101658.00;;;23.14;100.00
69153;BME280;56261;51.580;4.578;2023-08-12T11:59:40;101673.56;;;22.95;100.00
69153;BME280;56261;51.580;4.578;2023-08-12T12:02:06;101668.47;;;22.99;100.00
69153;BME280;56261;51.580;4.578;2023-08-12T12:04:32;101662.28;;;22.31;100.00
69153;BME280;56261;51.580;4.578;2023-08-12T12:06:58;101662.31;;;22.92;100.00
69153;BME280;56261;51.580;4.578;2023-08-12T12:09:24;101674.38;;;22.66;100.00
69153;BME280;56261;51.580;4.578;2023-08-12T12:11:52;101672.63;;;22.23;100.00
69153;BME280;56261;51.580;4.578;2023-08-12T12:14:20;101672.19;;;22.19;100.00
69153;BME280;56261;51.580;4.578;2023-08-12T12:16:47;101673.34;;;22.11;100.00
69153;BME280;56261;51.580;4.578;2023-08-12T12:19:23;101663.16;;;22.44;100.00
69153;BME280;56261;51.580;4.578;2023-08-12T12:21:52;101662.75;;;22.58;100.00
69153;BME280;56261;51.580;4.578;2023-08-12T12:24:19;101664.91;;;22.68;100.00
69153;BME280;56261;51.580;4.578;2023-08-12T12:26:46;101669.28;;;22.57;100.00
69153;BME280;56261;51.580;4.578;2023-08-12T12:29:12;101663.06;;;22.69;100.00
69153;BME280;56261;51.580;4.578;2023-08-12T12:31:39;101673.56;;;22.95;100.00
69153;BME280;56261;51.580;4.578;2023-08-12T12:34:05;101661.84;;;23.49;100.00
69153;BME280;56261;51.580;4.578;2023-08-12T12:36:32;101665.22;;;22.78;100.00